createdAt,value
2022-10-30T00:00:25.172Z,11.54
2022-10-30T00:03:27.397Z,11.62
2022-10-30T00:06:29.578Z,11.60
2022-10-30T00:09:31.715Z,11.61
2022-10-30T00:12:33.828Z,11.60
2022-10-30T00:15:36.246Z,11.62
2022-10-30T00:18:39.484Z,11.63
2022-10-30T00:21:41.725Z,11.62
2022-10-30T00:24:43.888Z,11.60
2022-10-30T00:27:46.174Z,11.64
2022-10-30T00:30:48.295Z,11.64
2022-10-30T00:33:54.123Z,11.66
2022-10-30T00:36:56.268Z,11.76
2022-10-30T00:39:58.398Z,11.73
2022-10-30T00:43:00.523Z,11.71
2022-10-30T00:46:08.146Z,11.65
2022-10-30T00:49:13.910Z,11.67
2022-10-30T00:52:16.293Z,11.68
2022-10-30T00:55:44.447Z,11.86
2022-10-30T00:58:59.338Z,11.84
2022-10-30T01:02:03.696Z,11.77
2022-10-30T01:05:06.301Z,11.68
2022-10-30T01:08:08.518Z,11.67
2022-10-30T01:11:12.029Z,11.63
2022-10-30T01:14:16.476Z,11.64
2022-10-30T01:17:21.579Z,11.67
2022-10-30T01:20:41.957Z,11.67
2022-10-30T01:23:59.103Z,11.71
2022-10-30T01:27:33.981Z,11.63
2022-10-30T01:30:36.100Z,11.58
2022-10-30T01:33:56.495Z,11.61
2022-10-30T01:37:04.193Z,11.65
2022-10-30T01:40:13.170Z,11.59
2022-10-30T01:43:15.963Z,11.67
2022-10-30T01:46:36.470Z,11.66
2022-10-30T01:50:05.326Z,11.61
2022-10-30T01:53:16.576Z,11.67
2022-10-30T01:56:41.467Z,11.49
2022-10-30T01:59:52.374Z,11.34
2022-10-30T02:02:54.686Z,11.35
2022-10-30T02:05:56.866Z,11.38
2022-10-30T02:08:59.001Z,11.41
2022-10-30T02:12:02.220Z,11.44
2022-10-30T02:15:04.862Z,11.37
2022-10-30T02:18:07.158Z,11.31
2022-10-30T02:21:09.424Z,11.26
2022-10-30T02:24:11.627Z,11.23
2022-10-30T02:27:13.854Z,11.33
2022-10-30T02:30:16.234Z,11.39
2022-10-30T02:36:25.492Z,11.32
2022-10-30T02:39:27.635Z,11.39
2022-10-30T02:42:29.747Z,11.44
2022-10-30T02:45:32.039Z,11.39
2022-10-30T02:48:34.214Z,11.27
2022-10-30T02:51:36.401Z,11.19
2022-10-30T02:54:38.537Z,11.22
2022-10-30T02:57:40.712Z,11.25
2022-10-30T03:00:42.843Z,11.08
2022-10-30T03:03:45.476Z,11.12
2022-10-30T03:06:47.706Z,11.12
2022-10-30T03:09:49.814Z,11.12
2022-10-30T03:12:51.936Z,11.00
2022-10-30T03:15:59.844Z,11.01
2022-10-30T03:19:02.008Z,10.96
2022-10-30T03:22:04.288Z,10.90
2022-10-30T03:25:06.615Z,10.80
2022-10-30T03:28:08.761Z,10.76
2022-10-30T03:31:16.112Z,10.74
2022-10-30T03:34:18.228Z,10.75
2022-10-30T03:37:20.424Z,10.78
2022-10-30T03:40:22.602Z,10.89
2022-10-30T03:43:24.864Z,10.92
2022-10-30T03:46:27.037Z,10.98
2022-10-30T03:49:29.172Z,10.95
2022-10-30T03:52:31.334Z,10.92
2022-10-30T03:55:33.506Z,10.98
2022-10-30T03:58:36.060Z,10.93
2022-10-30T04:01:38.662Z,10.93
2022-10-30T04:04:40.999Z,10.94
2022-10-30T04:07:43.422Z,10.93
2022-10-30T04:10:46.939Z,10.90
2022-10-30T04:13:49.210Z,10.81
2022-10-30T04:16:51.347Z,10.85
2022-10-30T04:19:53.529Z,11.08
2022-10-30T04:23:00.954Z,11.11
2022-10-30T04:26:03.101Z,11.02
2022-10-30T04:29:05.299Z,10.88
2022-10-30T04:32:07.900Z,10.93
2022-10-30T04:35:10.151Z,10.96
2022-10-30T04:38:14.135Z,10.94
2022-10-30T04:41:18.110Z,10.83
2022-10-30T04:44:20.366Z,10.81
2022-10-30T04:47:22.681Z,11.00
2022-10-30T04:50:24.918Z,10.79
2022-10-30T04:53:27.120Z,10.70
2022-10-30T04:56:29.367Z,10.69
2022-10-30T04:59:31.540Z,10.79
2022-10-30T05:02:37.145Z,10.84
2022-10-30T05:05:39.497Z,10.89
2022-10-30T05:08:41.662Z,10.91
2022-10-30T05:11:43.816Z,10.95
2022-10-30T05:14:46.208Z,11.02
2022-10-30T05:17:52.648Z,10.89
2022-10-30T05:20:54.823Z,10.83
2022-10-30T05:23:56.994Z,10.97
2022-10-30T05:26:59.166Z,11.01
2022-10-30T05:30:01.367Z,10.94
2022-10-30T05:33:06.110Z,10.92
2022-10-30T05:36:08.619Z,10.84
2022-10-30T05:39:10.779Z,10.88
2022-10-30T05:42:13.969Z,10.96
2022-10-30T05:45:16.953Z,10.93
2022-10-30T05:48:19.108Z,10.88
2022-10-30T05:51:21.322Z,10.86
2022-10-30T05:54:23.520Z,10.89
2022-10-30T05:57:29.287Z,10.91
2022-10-30T06:00:34.861Z,10.92
2022-10-30T06:03:37.038Z,10.91
2022-10-30T06:06:39.228Z,10.89
2022-10-30T06:09:41.404Z,11.02
2022-10-30T06:12:43.572Z,11.29
2022-10-30T06:15:45.756Z,11.22
2022-10-30T06:18:47.935Z,11.18
2022-10-30T06:21:50.120Z,11.22
2022-10-30T06:24:52.340Z,11.11
2022-10-30T06:27:54.699Z,11.13
2022-10-30T06:30:56.897Z,11.14
2022-10-30T06:33:59.188Z,11.03
2022-10-30T06:37:01.348Z,10.92
2022-10-30T06:40:03.886Z,11.00
2022-10-30T06:43:06.128Z,11.01
2022-10-30T06:49:15.385Z,11.21
2022-10-30T06:52:19.364Z,11.34
2022-10-30T06:55:21.586Z,11.35
2022-10-30T06:58:24.229Z,11.36
2022-10-30T07:01:26.418Z,11.39
2022-10-30T07:04:28.610Z,11.49
2022-10-30T07:07:30.812Z,11.52
2022-10-30T07:10:33.095Z,11.54
2022-10-30T07:13:35.235Z,11.55
2022-10-30T07:16:37.596Z,11.38
2022-10-30T07:19:40.024Z,11.38
2022-10-30T07:22:42.176Z,11.38
2022-10-30T07:25:44.330Z,11.35
2022-10-30T07:28:46.565Z,11.26
2022-10-30T07:32:01.855Z,11.12
2022-10-30T07:35:05.989Z,11.19
2022-10-30T07:38:12.675Z,11.07
2022-10-30T07:41:15.219Z,11.28
2022-10-30T07:44:17.501Z,11.36
2022-10-30T07:47:19.684Z,11.28
2022-10-30T07:50:21.930Z,11.39
2022-10-30T07:53:24.189Z,11.60
2022-10-30T07:56:27.108Z,11.66
2022-10-30T07:59:29.398Z,11.84
2022-10-30T08:02:32.094Z,11.87
2022-10-30T08:05:34.925Z,11.78
2022-10-30T08:08:42.058Z,11.83
2022-10-30T08:11:45.451Z,11.84
2022-10-30T08:14:47.578Z,11.95
2022-10-30T08:17:50.557Z,11.65
2022-10-30T08:20:52.727Z,11.89
2022-10-30T08:23:54.923Z,11.99
2022-10-30T08:26:57.093Z,11.96
2022-10-30T08:29:59.283Z,12.03
2022-10-30T08:33:03.553Z,12.08
2022-10-30T08:36:07.333Z,12.10
2022-10-30T08:39:09.979Z,12.09
2022-10-30T08:42:12.341Z,12.19
2022-10-30T08:45:14.479Z,12.34
2022-10-30T08:48:16.890Z,12.22
2022-10-30T08:51:19.083Z,12.36
2022-10-30T08:54:21.233Z,12.39
2022-10-30T08:57:23.441Z,12.32
2022-10-30T09:00:26.429Z,12.35
2022-10-30T09:03:28.624Z,12.37
2022-10-30T09:06:31.768Z,12.25
2022-10-30T09:09:33.885Z,12.22
2022-10-30T09:12:36.028Z,12.20
2022-10-30T09:15:38.257Z,12.07
2022-10-30T09:18:41.687Z,12.32
2022-10-30T09:21:43.827Z,12.34
2022-10-30T09:24:46.038Z,12.36
2022-10-30T09:27:48.234Z,12.24
2022-10-30T09:30:52.977Z,12.24
2022-10-30T09:33:55.108Z,12.17
2022-10-30T09:36:57.255Z,12.36
2022-10-30T09:39:59.401Z,12.41
2022-10-30T09:43:10.654Z,12.24
2022-10-30T09:46:28.357Z,12.29
2022-10-30T09:49:55.661Z,12.39
2022-10-30T09:53:03.969Z,12.47
2022-10-30T09:56:19.556Z,12.56
2022-10-30T09:59:43.316Z,12.44
2022-10-30T10:02:54.605Z,12.52
2022-10-30T10:05:59.235Z,12.62
2022-10-30T10:09:09.075Z,12.43
2022-10-30T10:12:15.848Z,12.62
2022-10-30T10:15:39.908Z,12.74
2022-10-30T10:18:50.327Z,12.82
2022-10-30T10:21:56.236Z,12.82
2022-10-30T10:24:58.457Z,12.68
2022-10-30T10:28:14.447Z,12.73
2022-10-30T10:31:55.852Z,12.93
2022-10-30T10:35:18.424Z,12.99
2022-10-30T10:38:36.294Z,13.00
2022-10-30T10:41:53.898Z,12.72
2022-10-30T10:45:23.044Z,12.83
2022-10-30T10:48:47.383Z,12.58
2022-10-30T10:51:59.859Z,12.59
2022-10-30T10:55:05.635Z,12.48
2022-10-30T10:58:17.008Z,12.59
2022-10-30T11:01:21.620Z,12.68
2022-10-30T11:04:35.957Z,12.95
2022-10-30T11:07:46.180Z,12.98
2022-10-30T11:10:59.972Z,13.03
2022-10-30T11:14:02.183Z,13.08
2022-10-30T11:17:20.792Z,12.97
2022-10-30T11:20:29.452Z,13.05
2022-10-30T11:23:34.417Z,13.05
2022-10-30T11:26:36.587Z,13.05
2022-10-30T11:29:38.725Z,12.95
2022-10-30T11:32:41.029Z,12.98
2022-10-30T11:35:43.293Z,13.10
2022-10-30T11:38:45.803Z,13.28
2022-10-30T11:42:10.772Z,13.23
2022-10-30T11:45:19.164Z,13.28
2022-10-30T11:48:30.052Z,13.40
2022-10-30T11:51:44.407Z,13.39
2022-10-30T11:55:16.988Z,13.46
2022-10-30T11:58:33.536Z,13.69
2022-10-30T12:01:36.904Z,13.64
2022-10-30T12:04:39.097Z,13.71
2022-10-30T12:07:41.213Z,13.78
2022-10-30T12:11:04.268Z,13.75
2022-10-30T12:14:06.820Z,13.67
2022-10-30T12:17:08.983Z,13.84
2022-10-30T12:20:15.107Z,13.87
2022-10-30T12:23:21.110Z,13.80
2022-10-30T12:26:23.975Z,13.65
2022-10-30T12:30:07.308Z,13.82
2022-10-30T12:33:15.768Z,13.82
2022-10-30T12:36:20.735Z,13.86
2022-10-30T12:39:41.839Z,13.76
2022-10-30T12:43:16.035Z,13.74
2022-10-30T12:46:29.533Z,13.73
2022-10-30T12:49:58.677Z,13.80
2022-10-30T12:53:38.632Z,13.68
2022-10-30T12:56:44.298Z,13.74
2022-10-30T13:00:15.875Z,13.93
2022-10-30T13:03:37.533Z,13.93
2022-10-30T13:06:46.683Z,13.71
2022-10-30T13:10:01.391Z,13.70
2022-10-30T13:13:13.468Z,13.76
2022-10-30T13:16:19.591Z,13.67
2022-10-30T13:19:21.818Z,13.61
2022-10-30T13:23:16.723Z,13.48
2022-10-30T13:26:33.280Z,13.45
2022-10-30T13:29:50.586Z,13.65
2022-10-30T13:33:11.394Z,13.77
2022-10-30T13:36:21.911Z,13.87
2022-10-30T13:39:43.833Z,13.85
2022-10-30T13:43:16.166Z,13.77
2022-10-30T13:46:27.698Z,13.59
2022-10-30T13:49:58.724Z,13.53
2022-10-30T13:53:06.152Z,13.50
2022-10-30T13:56:12.796Z,13.78
2022-10-30T13:59:26.169Z,13.68
2022-10-30T14:02:40.806Z,13.58
2022-10-30T14:06:01.053Z,13.47
2022-10-30T14:09:08.771Z,13.34
2022-10-30T14:12:55.430Z,13.55
2022-10-30T14:16:03.878Z,13.32
2022-10-30T14:19:10.371Z,13.23
2022-10-30T14:22:23.532Z,13.22
2022-10-30T14:25:25.741Z,13.22
2022-10-30T14:28:28.743Z,13.25
2022-10-30T14:31:35.665Z,13.25
2022-10-30T14:34:50.648Z,13.29
2022-10-30T14:37:52.773Z,13.25
2022-10-30T14:41:06.109Z,13.10
2022-10-30T14:44:13.081Z,12.99
2022-10-30T14:47:24.472Z,13.12
2022-10-30T14:50:26.571Z,13.05
2022-10-30T14:54:06.518Z,13.09
2022-10-30T14:57:40.423Z,13.05
2022-10-30T15:00:43.652Z,13.25
2022-10-30T15:04:40.020Z,13.36
2022-10-30T15:07:51.552Z,13.41
2022-10-30T15:11:18.207Z,13.32
2022-10-30T15:14:48.719Z,13.34
2022-10-30T15:18:01.936Z,13.24
2022-10-30T15:21:07.716Z,13.05
2022-10-30T15:24:18.335Z,12.97
2022-10-30T15:27:22.148Z,12.94
2022-10-30T15:30:27.000Z,12.88
2022-10-30T15:33:33.017Z,12.89
2022-10-30T15:36:40.440Z,13.02
2022-10-30T15:39:42.587Z,13.13
2022-10-30T15:42:46.163Z,13.36
2022-10-30T15:45:56.035Z,13.15
2022-10-30T15:48:58.299Z,13.23
2022-10-30T15:52:02.608Z,13.27
2022-10-30T15:55:09.981Z,12.82
2022-10-30T15:58:16.517Z,12.68
2022-10-30T16:01:33.330Z,12.68
2022-10-30T16:04:37.888Z,12.66
2022-10-30T16:07:46.453Z,12.81
2022-10-30T16:10:50.162Z,12.71
2022-10-30T16:13:52.863Z,12.67
2022-10-30T16:16:55.471Z,12.41
2022-10-30T16:20:01.438Z,12.46
2022-10-30T16:23:04.706Z,12.36
2022-10-30T16:26:07.045Z,12.32
2022-10-30T16:29:17.042Z,12.22
2022-10-30T16:32:21.890Z,12.22
2022-10-30T16:35:24.937Z,12.23
2022-10-30T16:38:29.374Z,12.27
2022-10-30T16:41:31.774Z,12.31
2022-10-30T16:44:35.531Z,12.37
2022-10-30T16:47:39.032Z,12.43
2022-10-30T16:50:41.280Z,12.33
2022-10-30T16:53:47.766Z,12.36
2022-10-30T16:56:53.137Z,12.30
2022-10-30T16:59:58.852Z,12.24
2022-10-30T17:03:07.366Z,12.20
2022-10-30T17:06:30.092Z,12.35
2022-10-30T17:09:36.428Z,12.25
2022-10-30T17:12:38.777Z,12.30
2022-10-30T17:15:41.868Z,12.37
2022-10-30T17:18:44.088Z,12.30
2022-10-30T17:21:46.349Z,12.27
2022-10-30T17:24:48.871Z,12.30
2022-10-30T17:27:51.681Z,12.24
2022-10-30T17:30:54.343Z,12.26
2022-10-30T17:34:02.699Z,12.20
2022-10-30T17:37:05.204Z,12.33
2022-10-30T17:40:07.805Z,12.59
2022-10-30T17:43:16.776Z,12.44
2022-10-30T17:46:20.511Z,12.40
2022-10-30T17:49:32.411Z,12.45
2022-10-30T17:52:34.938Z,12.53
2022-10-30T17:55:38.965Z,12.69
2022-10-30T17:58:41.862Z,12.84
2022-10-30T18:01:44.340Z,12.66
2022-10-30T18:04:47.742Z,12.54
2022-10-30T18:10:57.649Z,12.51
2022-10-30T18:14:01.970Z,12.45
2022-10-30T18:17:04.484Z,12.61
2022-10-30T18:20:07.416Z,12.65
2022-10-30T18:23:52.056Z,12.51
2022-10-30T18:26:46.708Z,12.42
2022-10-30T18:29:49.068Z,12.51
2022-10-30T18:32:51.547Z,12.43
2022-10-30T18:35:54.624Z,12.51
2022-10-30T18:38:58.159Z,12.52
2022-10-30T18:42:00.397Z,12.48
2022-10-30T18:45:03.330Z,12.48
2022-10-30T18:48:06.054Z,12.42
2022-10-30T18:51:18.098Z,12.43
2022-10-30T18:54:20.444Z,12.62
2022-10-30T18:57:22.774Z,12.52
2022-10-30T19:00:34.968Z,12.55
2022-10-30T19:03:42.755Z,12.53
2022-10-30T19:06:45.180Z,12.43
2022-10-30T19:09:47.566Z,12.50
2022-10-30T19:13:10.879Z,12.47
2022-10-30T19:16:15.243Z,12.55
2022-10-30T19:19:18.024Z,12.53
2022-10-30T19:22:20.721Z,12.48
2022-10-30T19:25:27.478Z,12.61
2022-10-30T19:28:30.916Z,12.53
2022-10-30T19:31:33.186Z,12.46
2022-10-30T19:34:35.602Z,12.47
2022-10-30T19:37:37.933Z,12.44
2022-10-30T19:40:40.857Z,12.54
2022-10-30T19:43:43.282Z,12.63
2022-10-30T19:46:45.856Z,12.71
2022-10-30T19:49:48.181Z,12.52
2022-10-30T19:52:52.180Z,12.39
2022-10-30T19:55:54.708Z,12.41
2022-10-30T19:58:57.757Z,12.43
2022-10-30T20:02:00.289Z,12.41
2022-10-30T20:05:03.224Z,12.38
2022-10-30T20:08:15.742Z,12.27
2022-10-30T20:11:18.021Z,12.28
2022-10-30T20:14:20.778Z,12.19
2022-10-30T20:17:23.024Z,12.14
2022-10-30T20:20:33.425Z,12.15
2022-10-30T20:23:36.159Z,12.20
2022-10-30T20:26:41.029Z,12.34
2022-10-30T20:29:43.470Z,12.36
2022-10-30T20:32:45.931Z,12.33
2022-10-30T20:35:49.595Z,12.21
2022-10-30T20:38:53.014Z,12.16
2022-10-30T20:41:55.244Z,12.30
2022-10-30T20:44:57.437Z,12.33
2022-10-30T20:48:00.180Z,12.26
2022-10-30T20:51:03.190Z,12.22
2022-10-30T20:54:05.553Z,12.25
2022-10-30T20:57:07.944Z,12.30
2022-10-30T21:00:12.467Z,12.26
2022-10-30T21:03:15.025Z,12.26
2022-10-30T21:06:17.308Z,12.23
2022-10-30T21:09:19.695Z,12.22
2022-10-30T21:12:21.896Z,12.27
2022-10-30T21:15:24.256Z,12.20
2022-10-30T21:18:26.729Z,12.18
2022-10-30T21:21:28.908Z,12.14
2022-10-30T21:24:31.303Z,12.15
2022-10-30T21:27:33.710Z,12.15
2022-10-30T21:30:35.910Z,12.04
2022-10-30T21:33:38.112Z,12.03
2022-10-30T21:36:40.405Z,12.00
2022-10-30T21:39:42.627Z,12.05
2022-10-30T21:42:47.885Z,12.11
2022-10-30T21:45:50.045Z,12.22
2022-10-30T21:48:52.438Z,12.12
2022-10-30T21:51:54.624Z,12.11
2022-10-30T21:54:56.819Z,12.03
2022-10-30T21:57:59.232Z,12.10
2022-10-30T22:01:02.129Z,11.91
2022-10-30T22:04:06.342Z,11.94
2022-10-30T22:07:08.487Z,11.93
2022-10-30T22:10:10.601Z,12.00
2022-10-30T22:16:20.456Z,11.91
2022-10-30T22:19:22.619Z,11.89
2022-10-30T22:22:24.801Z,11.83
2022-10-30T22:25:27.021Z,11.84
2022-10-30T22:28:30.528Z,11.83
2022-10-30T22:31:32.880Z,11.88
2022-10-30T22:34:35.073Z,11.91
2022-10-30T22:37:38.973Z,11.92
2022-10-30T22:40:42.486Z,11.88
2022-10-30T22:43:46.386Z,11.88
2022-10-30T22:46:48.564Z,11.86
2022-10-30T22:49:50.742Z,11.82
2022-10-30T22:52:53.145Z,11.83
2022-10-30T22:55:55.352Z,11.77
2022-10-30T22:58:57.894Z,11.73
2022-10-30T23:02:00.164Z,11.68
2022-10-30T23:05:02.402Z,11.69
2022-10-30T23:08:04.858Z,11.85
2022-10-30T23:11:09.320Z,11.70
2022-10-30T23:14:11.551Z,11.72
2022-10-30T23:17:13.706Z,11.77
2022-10-30T23:20:16.455Z,11.58
2022-10-30T23:23:18.620Z,11.59
2022-10-30T23:26:29.114Z,11.55
2022-10-30T23:29:31.282Z,11.59
2022-10-30T23:32:33.444Z,11.58
2022-10-30T23:35:35.739Z,11.56
2022-10-30T23:38:37.890Z,11.66
2022-10-30T23:41:40.277Z,11.58
2022-10-30T23:44:42.411Z,11.61
2022-10-30T23:47:44.592Z,11.63
2022-10-30T23:50:46.748Z,11.54
2022-10-30T23:53:48.949Z,11.51
2022-10-30T23:56:51.067Z,11.49
2022-10-30T23:59:53.266Z,11.57
